createdAt,value
2022-11-04T00:00:29.932Z,1.40
2022-11-04T00:02:57.037Z,1.35
2022-11-04T00:05:23.583Z,1.17
2022-11-04T00:08:10.400Z,0.98
2022-11-04T00:10:57.219Z,0.68
2022-11-04T00:13:23.772Z,0.73
2022-11-04T00:16:16.390Z,0.88
2022-11-04T00:18:42.968Z,1.37
2022-11-04T00:21:28.026Z,1.48
2022-11-04T00:24:12.924Z,1.20
2022-11-04T00:26:57.876Z,1.10
2022-11-04T00:29:24.486Z,1.52
2022-11-04T00:32:09.701Z,0.90
2022-11-04T00:34:36.271Z,0.73
2022-11-04T00:37:03.252Z,0.70
2022-11-04T00:39:30.081Z,0.90
2022-11-04T00:41:56.641Z,1.20
2022-11-04T00:44:23.223Z,1.02
2022-11-04T00:46:49.769Z,0.82
2022-11-04T00:49:16.344Z,0.85
2022-11-04T00:51:42.913Z,0.90
2022-11-04T00:54:09.529Z,0.70
2022-11-04T00:56:40.155Z,0.95
2022-11-04T00:59:10.407Z,0.90
2022-11-04T01:01:40.489Z,0.80
2022-11-04T01:04:07.223Z,0.90
2022-11-04T01:06:33.816Z,0.70
2022-11-04T01:09:02.025Z,1.00
2022-11-04T01:11:29.515Z,1.00
2022-11-04T01:13:56.414Z,0.88
2022-11-04T01:16:23.672Z,0.80
2022-11-04T01:18:50.479Z,0.80
2022-11-04T01:21:17.431Z,0.60
2022-11-04T01:23:45.821Z,0.70
2022-11-04T01:26:17.533Z,0.82
2022-11-04T01:28:44.394Z,0.68
2022-11-04T01:31:20.748Z,0.60
2022-11-04T01:33:47.642Z,0.60
2022-11-04T01:36:14.412Z,0.80
2022-11-04T01:38:41.158Z,0.80
2022-11-04T01:41:08.501Z,0.88
2022-11-04T01:43:43.806Z,0.65
2022-11-04T01:46:10.364Z,0.60
2022-11-04T01:48:36.928Z,0.70
2022-11-04T01:51:03.503Z,0.90
2022-11-04T01:53:35.167Z,1.00
2022-11-04T01:56:04.436Z,0.82
2022-11-04T01:58:33.268Z,0.63
2022-11-04T02:00:59.909Z,0.52
2022-11-04T02:03:30.157Z,0.80
2022-11-04T02:05:56.678Z,0.63
2022-11-04T02:08:23.251Z,0.70
2022-11-04T02:10:58.288Z,0.70
2022-11-04T02:13:24.886Z,0.73
2022-11-04T02:16:41.418Z,0.50
2022-11-04T02:19:36.940Z,0.68
2022-11-04T02:22:12.304Z,0.50
2022-11-04T02:24:54.036Z,0.70
2022-11-04T02:27:38.813Z,0.50
2022-11-04T02:30:08.485Z,0.60
2022-11-04T02:32:55.974Z,0.57
2022-11-04T02:35:45.733Z,0.60
2022-11-04T02:38:32.943Z,0.50
2022-11-04T02:41:23.885Z,0.70
2022-11-04T02:43:57.930Z,0.57
2022-11-04T02:46:43.026Z,0.80
2022-11-04T02:49:31.776Z,0.80
2022-11-04T02:52:32.775Z,0.47
2022-11-04T02:55:22.435Z,0.75
2022-11-04T02:57:49.047Z,0.70
2022-11-04T03:00:15.837Z,0.70
2022-11-04T03:02:45.183Z,0.60
2022-11-04T03:05:13.706Z,0.70
2022-11-04T03:07:41.357Z,0.75
2022-11-04T03:10:11.160Z,0.57
2022-11-04T03:12:40.256Z,0.40
2022-11-04T03:15:09.395Z,0.60
2022-11-04T03:17:47.567Z,0.40
2022-11-04T03:20:18.378Z,0.70
2022-11-04T03:25:19.247Z,0.90
2022-11-04T03:27:48.019Z,0.60
2022-11-04T03:30:22.155Z,0.70
2022-11-04T03:33:00.928Z,0.65
2022-11-04T03:35:27.607Z,0.60
2022-11-04T03:37:54.193Z,1.25
2022-11-04T03:40:20.799Z,0.60
2022-11-04T03:43:05.206Z,0.68
2022-11-04T03:45:31.800Z,0.50
2022-11-04T03:47:58.410Z,0.50
2022-11-04T03:50:30.055Z,0.63
2022-11-04T03:52:57.354Z,0.50
2022-11-04T03:55:28.213Z,0.60
2022-11-04T03:58:03.811Z,0.50
2022-11-04T04:00:39.266Z,0.77
2022-11-04T04:03:05.746Z,0.60
2022-11-04T04:05:51.502Z,0.70
2022-11-04T04:08:34.967Z,0.60
2022-11-04T04:11:19.072Z,0.75
2022-11-04T04:13:53.841Z,0.50
2022-11-04T04:16:52.827Z,0.57
2022-11-04T04:19:20.877Z,0.68
2022-11-04T04:22:09.707Z,0.60
2022-11-04T04:24:55.640Z,0.60
2022-11-04T04:27:31.030Z,0.70
2022-11-04T04:30:01.944Z,0.82
2022-11-04T04:32:28.951Z,0.60
2022-11-04T04:35:13.999Z,0.50
2022-11-04T04:37:40.598Z,0.60
2022-11-04T04:40:26.266Z,1.00
2022-11-04T04:43:12.022Z,0.80
2022-11-04T04:45:40.039Z,0.63
2022-11-04T04:48:06.654Z,1.42
2022-11-04T04:50:36.159Z,0.73
2022-11-04T04:53:04.270Z,0.95
2022-11-04T04:55:38.858Z,1.00
2022-11-04T04:58:08.262Z,0.60
2022-11-04T05:00:35.174Z,0.90
2022-11-04T05:03:01.770Z,1.00
2022-11-04T05:05:28.456Z,0.70
2022-11-04T05:07:55.075Z,1.10
2022-11-04T05:10:21.767Z,1.00
2022-11-04T05:13:07.169Z,1.00
2022-11-04T05:15:34.406Z,0.75
2022-11-04T05:18:02.347Z,0.90
2022-11-04T05:20:34.414Z,1.00
2022-11-04T05:23:01.115Z,0.50
2022-11-04T05:25:27.664Z,1.10
2022-11-04T05:27:54.240Z,1.17
2022-11-04T05:30:20.891Z,0.98
2022-11-04T05:32:47.651Z,0.85
2022-11-04T05:35:14.235Z,1.90
2022-11-04T05:37:40.879Z,1.50
2022-11-04T05:40:08.039Z,2.15
2022-11-04T05:42:36.840Z,1.83
2022-11-04T05:45:04.406Z,2.50
2022-11-04T05:47:31.019Z,2.38
2022-11-04T05:49:57.569Z,2.53
2022-11-04T05:52:24.239Z,2.50
2022-11-04T05:54:50.779Z,2.35
2022-11-04T05:57:17.312Z,2.35
2022-11-04T05:59:43.853Z,2.00
2022-11-04T06:02:10.635Z,1.63
2022-11-04T06:04:37.420Z,2.00
2022-11-04T06:07:04.063Z,2.00
2022-11-04T06:09:39.324Z,1.73
2022-11-04T06:12:07.969Z,2.90
2022-11-04T06:14:34.522Z,2.45
2022-11-04T06:17:01.255Z,2.15
2022-11-04T06:19:27.832Z,1.50
2022-11-04T06:21:54.439Z,2.08
2022-11-04T06:24:20.995Z,2.00
2022-11-04T06:26:47.578Z,1.73
2022-11-04T06:29:14.108Z,1.73
2022-11-04T06:31:40.670Z,1.52
2022-11-04T06:34:07.302Z,1.50
2022-11-04T06:36:33.858Z,1.70
2022-11-04T06:39:04.719Z,1.70
2022-11-04T06:41:31.740Z,2.05
2022-11-04T06:43:58.306Z,1.98
2022-11-04T06:46:27.652Z,2.35
2022-11-04T06:48:55.688Z,1.60
2022-11-04T06:51:22.447Z,1.33
2022-11-04T06:53:49.088Z,1.67
2022-11-04T06:56:15.653Z,2.30
2022-11-04T06:58:42.339Z,2.15
2022-11-04T07:01:13.699Z,2.80
2022-11-04T07:03:44.221Z,2.50
2022-11-04T07:06:11.235Z,2.53
2022-11-04T07:08:38.051Z,3.22
2022-11-04T07:11:04.678Z,4.68
2022-11-04T07:13:31.262Z,3.20
2022-11-04T07:15:58.098Z,2.75
2022-11-04T07:18:24.724Z,3.00
2022-11-04T07:20:51.732Z,2.22
2022-11-04T07:23:18.333Z,2.30
2022-11-04T07:25:44.895Z,2.65
2022-11-04T07:28:11.924Z,2.45
2022-11-04T07:30:38.756Z,2.33
2022-11-04T07:33:05.303Z,2.45
2022-11-04T07:35:31.889Z,2.72
2022-11-04T07:37:58.462Z,2.10
2022-11-04T07:40:25.006Z,2.67
2022-11-04T07:42:51.553Z,2.00
2022-11-04T07:45:18.168Z,2.55
2022-11-04T07:47:44.832Z,2.22
2022-11-04T07:50:11.761Z,2.10
2022-11-04T07:52:38.698Z,2.03
2022-11-04T07:55:05.859Z,1.92
2022-11-04T07:57:32.472Z,2.20
2022-11-04T07:59:59.575Z,2.35
2022-11-04T08:02:31.100Z,1.73
2022-11-04T08:05:00.630Z,1.83
2022-11-04T08:07:27.211Z,2.17
2022-11-04T08:09:53.870Z,1.80
2022-11-04T08:12:22.192Z,1.50
2022-11-04T08:14:48.772Z,1.60
2022-11-04T08:17:15.612Z,1.75
2022-11-04T08:19:42.166Z,1.48
2022-11-04T08:22:09.119Z,1.40
2022-11-04T08:24:35.788Z,1.27
2022-11-04T08:27:02.832Z,1.55
2022-11-04T08:29:38.489Z,1.50
2022-11-04T08:32:05.823Z,1.50
2022-11-04T08:34:32.380Z,1.20
2022-11-04T08:37:00.320Z,1.20
2022-11-04T08:39:26.969Z,1.45
2022-11-04T08:41:53.637Z,1.83
2022-11-04T08:44:20.479Z,1.60
2022-11-04T08:46:47.428Z,1.10
2022-11-04T08:49:19.682Z,1.30
2022-11-04T08:51:49.658Z,1.00
2022-11-04T08:54:19.048Z,1.13
2022-11-04T08:56:45.705Z,1.40
2022-11-04T08:59:12.589Z,1.20
2022-11-04T09:01:39.661Z,1.00
2022-11-04T09:04:07.036Z,0.90
2022-11-04T09:06:36.674Z,0.88
2022-11-04T09:09:05.562Z,0.93
2022-11-04T09:11:33.786Z,1.35
2022-11-04T09:14:01.306Z,0.77
2022-11-04T09:16:31.589Z,0.80
2022-11-04T09:18:58.641Z,0.88
2022-11-04T09:21:26.374Z,1.10
2022-11-04T09:23:53.259Z,0.90
2022-11-04T09:26:20.375Z,1.27
2022-11-04T09:28:46.936Z,1.10
2022-11-04T09:31:16.002Z,1.40
2022-11-04T09:33:42.876Z,1.10
2022-11-04T09:36:10.578Z,1.42
2022-11-04T09:38:41.187Z,1.30
2022-11-04T09:41:30.394Z,1.38
2022-11-04T09:44:08.975Z,1.20
2022-11-04T09:46:35.563Z,1.20
2022-11-04T09:49:02.752Z,1.20
2022-11-04T09:51:53.106Z,1.05
2022-11-04T09:54:23.403Z,0.88
2022-11-04T09:56:51.491Z,1.00
2022-11-04T09:59:22.029Z,0.90
2022-11-04T10:01:51.556Z,1.50
2022-11-04T10:04:39.909Z,1.15
2022-11-04T10:07:35.511Z,1.00
2022-11-04T10:10:32.413Z,1.02
2022-11-04T10:13:20.590Z,1.48
2022-11-04T10:16:10.441Z,1.38
2022-11-04T10:19:18.557Z,0.88
2022-11-04T10:21:45.552Z,1.10
2022-11-04T10:24:24.864Z,1.40
2022-11-04T10:27:05.622Z,1.00
2022-11-04T10:29:43.399Z,1.63
2022-11-04T10:33:00.722Z,0.85
2022-11-04T10:35:29.659Z,1.08
2022-11-04T10:37:56.503Z,0.95
2022-11-04T10:40:36.455Z,1.45
2022-11-04T10:43:03.339Z,1.23
2022-11-04T10:45:50.621Z,0.90
2022-11-04T10:48:23.211Z,0.93
2022-11-04T10:50:57.498Z,1.08
2022-11-04T10:53:26.385Z,1.00
2022-11-04T10:56:02.038Z,0.98
2022-11-04T10:58:31.521Z,1.05
2022-11-04T11:00:58.711Z,0.90
2022-11-04T11:03:30.870Z,1.00
2022-11-04T11:06:27.403Z,0.80
2022-11-04T11:08:55.645Z,1.30
2022-11-04T11:11:40.694Z,1.10
2022-11-04T11:14:29.704Z,1.10
2022-11-04T11:16:57.163Z,1.15
2022-11-04T11:19:27.537Z,1.25
2022-11-04T11:21:56.440Z,1.48
2022-11-04T11:24:27.751Z,1.15
2022-11-04T11:27:00.732Z,1.23
2022-11-04T11:31:55.620Z,1.30
2022-11-04T11:34:32.591Z,0.70
2022-11-04T11:36:59.721Z,1.20
2022-11-04T11:39:28.207Z,2.22
2022-11-04T11:42:00.825Z,11.55
2022-11-04T11:44:47.705Z,2.72
2022-11-04T11:47:23.014Z,1.30
2022-11-04T11:50:04.904Z,1.20
2022-11-04T11:52:38.245Z,1.52
2022-11-04T11:55:19.676Z,1.10
2022-11-04T12:01:22.037Z,1.20
2022-11-04T12:10:01.163Z,0.80
2022-11-04T12:12:52.952Z,1.05
2022-11-04T12:15:41.573Z,0.65
2022-11-04T12:18:28.542Z,1.38
2022-11-04T12:21:10.194Z,0.80
2022-11-04T12:23:46.339Z,1.05
2022-11-04T12:26:51.483Z,0.73
2022-11-04T12:29:37.010Z,1.67
2022-11-04T12:32:03.655Z,1.13
2022-11-04T12:34:48.696Z,0.80
2022-11-04T12:37:18.691Z,0.90
2022-11-04T12:40:19.117Z,1.30
2022-11-04T12:42:56.304Z,0.90
2022-11-04T12:45:29.393Z,0.60
2022-11-04T12:48:04.848Z,0.85
2022-11-04T12:50:58.861Z,0.70
2022-11-04T12:53:25.519Z,0.75
2022-11-04T12:56:11.656Z,0.90
2022-11-04T12:59:21.910Z,0.70
2022-11-04T13:01:54.255Z,0.88
2022-11-04T13:04:25.970Z,1.70
2022-11-04T13:07:14.694Z,5.05
2022-11-04T13:09:56.414Z,6.57
2022-11-04T13:12:24.971Z,3.20
2022-11-04T13:15:02.530Z,1.80
2022-11-04T13:17:40.077Z,1.88
2022-11-04T13:20:15.943Z,0.80
2022-11-04T13:22:44.666Z,1.15
2022-11-04T13:25:37.781Z,1.00
2022-11-04T13:28:04.474Z,0.75
2022-11-04T13:30:33.854Z,0.80
2022-11-04T13:33:27.896Z,0.70
2022-11-04T13:36:13.227Z,0.80
2022-11-04T13:39:00.748Z,0.75
2022-11-04T13:41:39.810Z,0.90
2022-11-04T13:44:19.139Z,0.93
2022-11-04T13:46:53.731Z,1.23
2022-11-04T13:49:32.372Z,0.70
2022-11-04T13:52:13.702Z,1.23
2022-11-04T13:54:41.991Z,0.80
2022-11-04T13:57:12.463Z,0.98
2022-11-04T13:59:39.652Z,0.68
2022-11-04T14:02:25.634Z,1.00
2022-11-04T14:04:52.293Z,0.93
2022-11-04T14:07:18.974Z,0.90
2022-11-04T14:09:54.367Z,1.10
2022-11-04T14:12:33.405Z,0.85
2022-11-04T14:15:09.256Z,0.82
2022-11-04T14:17:35.767Z,1.25
2022-11-04T14:20:07.861Z,1.15
2022-11-04T14:22:43.634Z,1.20
2022-11-04T14:25:20.996Z,0.93
2022-11-04T14:27:55.291Z,1.20
2022-11-04T14:30:47.234Z,1.15
2022-11-04T14:33:32.476Z,0.70
2022-11-04T14:36:20.028Z,0.90
2022-11-04T14:39:12.729Z,0.90
2022-11-04T14:42:02.406Z,0.60
2022-11-04T14:44:42.112Z,0.98
2022-11-04T14:47:14.955Z,0.82
2022-11-04T14:49:49.146Z,0.77
2022-11-04T14:52:26.857Z,0.80
2022-11-04T14:55:20.748Z,0.70
2022-11-04T14:57:52.503Z,0.85
2022-11-04T15:00:22.327Z,1.20
2022-11-04T15:02:58.285Z,1.05
2022-11-04T15:05:29.747Z,1.50
2022-11-04T15:07:56.303Z,1.23
2022-11-04T15:10:26.330Z,1.10
2022-11-04T15:12:57.301Z,1.23
2022-11-04T15:15:36.431Z,1.23
2022-11-04T15:18:30.307Z,1.80
2022-11-04T15:20:58.945Z,1.50
2022-11-04T15:26:32.673Z,2.03
2022-11-04T15:29:00.986Z,3.35
2022-11-04T15:31:30.767Z,3.85
2022-11-04T15:34:04.820Z,5.80
2022-11-04T15:36:42.071Z,2.80
2022-11-04T15:39:15.230Z,2.83
2022-11-04T15:42:00.929Z,2.13
2022-11-04T15:44:29.909Z,4.35
2022-11-04T15:47:01.547Z,2.88
2022-11-04T15:49:32.579Z,2.38
2022-11-04T15:52:07.447Z,2.47
2022-11-04T15:54:38.689Z,1.83
2022-11-04T15:57:16.098Z,1.60
2022-11-04T15:59:57.913Z,2.47
2022-11-04T16:02:35.446Z,1.80
2022-11-04T16:05:12.886Z,5.53
2022-11-04T16:07:40.932Z,5.03
2022-11-04T16:10:25.100Z,4.25
2022-11-04T16:12:59.834Z,3.05
2022-11-04T16:15:59.845Z,2.75
2022-11-04T16:18:35.919Z,3.25
2022-11-04T16:21:14.822Z,3.70
2022-11-04T16:23:47.433Z,4.13
2022-11-04T16:26:14.084Z,3.25
2022-11-04T16:28:40.817Z,2.45
2022-11-04T16:31:14.701Z,2.65
2022-11-04T16:33:41.325Z,2.72
2022-11-04T16:36:13.997Z,3.40
2022-11-04T16:38:40.554Z,5.32
2022-11-04T16:41:08.552Z,6.50
2022-11-04T16:43:35.179Z,5.45
2022-11-04T16:46:01.821Z,4.53
2022-11-04T16:48:28.417Z,11.20
2022-11-04T16:50:55.158Z,7.43
2022-11-04T16:53:21.779Z,6.35
2022-11-04T16:55:48.548Z,3.33
2022-11-04T16:58:17.806Z,3.35
2022-11-04T17:00:44.585Z,3.38
2022-11-04T17:03:22.289Z,2.47
2022-11-04T17:05:56.677Z,2.58
2022-11-04T17:08:24.196Z,2.72
2022-11-04T17:10:50.895Z,3.10
2022-11-04T17:13:17.444Z,3.70
2022-11-04T17:15:44.101Z,2.88
2022-11-04T17:18:14.529Z,2.90
2022-11-04T17:20:41.580Z,2.90
2022-11-04T17:23:09.543Z,3.47
2022-11-04T17:25:36.267Z,3.60
2022-11-04T17:28:02.856Z,3.30
2022-11-04T17:30:29.433Z,3.80
2022-11-04T17:32:56.078Z,4.10
2022-11-04T17:35:22.919Z,4.68
2022-11-04T17:37:53.756Z,4.50
2022-11-04T17:40:21.852Z,3.58
2022-11-04T17:43:11.932Z,3.70
2022-11-04T17:45:40.006Z,2.38
2022-11-04T17:48:07.453Z,3.10
2022-11-04T17:50:34.272Z,5.15
2022-11-04T17:53:00.934Z,4.78
2022-11-04T17:55:27.957Z,4.40
2022-11-04T17:57:55.368Z,4.35
2022-11-04T18:00:24.424Z,3.28
2022-11-04T18:02:51.148Z,3.72
2022-11-04T18:05:17.824Z,5.20
2022-11-04T18:07:44.437Z,4.63
2022-11-04T18:10:11.461Z,6.65
2022-11-04T18:12:38.199Z,5.40
2022-11-04T18:15:10.183Z,5.82
2022-11-04T18:17:38.282Z,5.82
2022-11-04T18:20:10.721Z,5.72
2022-11-04T18:22:40.104Z,5.65
2022-11-04T18:25:07.345Z,5.38
2022-11-04T18:27:34.023Z,5.38
2022-11-04T18:30:00.597Z,4.00
2022-11-04T18:32:27.158Z,3.53
2022-11-04T18:34:53.769Z,3.50
2022-11-04T18:37:20.565Z,3.22
2022-11-04T18:39:47.162Z,3.55
2022-11-04T18:42:13.754Z,3.30
2022-11-04T18:44:40.620Z,3.25
2022-11-04T18:47:07.174Z,3.78
2022-11-04T18:49:33.797Z,3.85
2022-11-04T18:52:00.400Z,3.97
2022-11-04T18:54:27.076Z,5.07
2022-11-04T18:56:53.684Z,4.90
2022-11-04T18:59:20.276Z,6.00
2022-11-04T19:01:46.973Z,7.25
2022-11-04T19:04:13.842Z,5.95
2022-11-04T19:06:42.528Z,5.75
2022-11-04T19:09:40.595Z,5.55
2022-11-04T19:12:15.879Z,5.18
2022-11-04T19:14:42.507Z,5.43
2022-11-04T19:17:09.708Z,5.03
2022-11-04T19:19:36.416Z,5.57
2022-11-04T19:22:03.298Z,4.85
2022-11-04T19:24:29.878Z,5.43
2022-11-04T19:26:56.449Z,5.72
2022-11-04T19:29:26.084Z,5.70
2022-11-04T19:31:52.735Z,5.88
2022-11-04T19:34:19.344Z,6.78
2022-11-04T19:36:45.941Z,6.80
2022-11-04T19:39:12.595Z,8.00
2022-11-04T19:41:58.011Z,9.80
2022-11-04T19:44:24.630Z,12.50
2022-11-04T19:46:51.350Z,11.13
2022-11-04T19:49:18.315Z,11.27
2022-11-04T19:51:45.311Z,11.23
2022-11-04T19:54:12.161Z,10.10
2022-11-04T19:56:38.958Z,9.07
2022-11-04T19:59:07.496Z,8.30
2022-11-04T20:01:35.440Z,7.18
2022-11-04T20:04:03.580Z,4.75
2022-11-04T20:06:32.287Z,4.85
2022-11-04T20:09:05.360Z,5.30
2022-11-04T20:14:04.736Z,4.97
2022-11-04T20:16:36.839Z,5.63
2022-11-04T20:19:04.824Z,6.28
2022-11-04T20:21:33.638Z,6.25
2022-11-04T20:24:02.023Z,7.30
2022-11-04T20:26:30.010Z,9.10
2022-11-04T20:28:58.388Z,9.63
2022-11-04T20:31:30.042Z,8.38
2022-11-04T20:33:57.632Z,8.77
2022-11-04T20:36:28.547Z,11.43
2022-11-04T20:38:56.436Z,12.57
2022-11-04T20:41:23.004Z,12.15
2022-11-04T20:43:49.795Z,11.82
2022-11-04T20:46:20.889Z,10.05
2022-11-04T20:48:48.011Z,11.32
2022-11-04T20:51:16.496Z,9.93
2022-11-04T20:53:43.540Z,8.23
2022-11-04T20:56:12.431Z,8.43
2022-11-04T20:58:40.186Z,8.80
2022-11-04T21:01:11.810Z,10.35
2022-11-04T21:03:38.392Z,10.45
2022-11-04T21:06:05.106Z,8.73
2022-11-04T21:08:35.075Z,10.05
2022-11-04T21:11:02.232Z,10.23
2022-11-04T21:13:28.798Z,10.82
2022-11-04T21:15:57.670Z,9.85
2022-11-04T21:18:24.930Z,10.55
2022-11-04T21:20:52.160Z,10.18
2022-11-04T21:23:22.555Z,10.23
2022-11-04T21:25:57.281Z,9.07
2022-11-04T21:28:27.337Z,9.10
2022-11-04T21:30:54.621Z,7.82
2022-11-04T21:33:21.451Z,7.88
2022-11-04T21:35:48.857Z,7.70
2022-11-04T21:38:17.074Z,7.82
2022-11-04T21:40:44.475Z,6.72
2022-11-04T21:43:11.611Z,5.82
2022-11-04T21:45:38.231Z,6.93
2022-11-04T21:48:05.240Z,6.55
2022-11-04T21:50:31.947Z,5.88
2022-11-04T21:52:58.715Z,6.60
2022-11-04T21:55:25.441Z,6.05
2022-11-04T21:57:52.030Z,6.40
2022-11-04T22:00:18.718Z,9.82
2022-11-04T22:02:50.623Z,7.55
2022-11-04T22:05:17.431Z,6.30
2022-11-04T22:08:02.479Z,7.13
2022-11-04T22:10:29.401Z,6.32
2022-11-04T22:12:56.296Z,6.80
2022-11-04T22:15:41.395Z,6.13
2022-11-04T22:18:07.958Z,5.60
2022-11-04T22:20:38.471Z,5.45
2022-11-04T22:23:05.091Z,5.13
2022-11-04T22:25:31.688Z,5.85
2022-11-04T22:27:58.356Z,5.60
2022-11-04T22:30:25.161Z,5.60
2022-11-04T22:32:52.557Z,6.30
2022-11-04T22:35:19.221Z,5.45
2022-11-04T22:37:45.948Z,5.13
2022-11-04T22:40:12.940Z,5.95
2022-11-04T22:42:39.526Z,5.45
2022-11-04T22:45:06.547Z,4.95
2022-11-04T22:47:33.108Z,5.75
2022-11-04T22:49:59.727Z,5.30
2022-11-04T22:52:26.502Z,4.93
2022-11-04T22:54:53.054Z,4.95
2022-11-04T22:57:19.662Z,6.22
2022-11-04T22:59:46.280Z,5.32
2022-11-04T23:02:13.023Z,5.90
2022-11-04T23:04:42.526Z,5.10
2022-11-04T23:07:09.076Z,4.45
2022-11-04T23:09:55.611Z,4.85
2022-11-04T23:12:40.587Z,5.10
2022-11-04T23:15:25.979Z,4.93
2022-11-04T23:18:11.072Z,4.55
2022-11-04T23:20:37.656Z,4.72
2022-11-04T23:23:22.660Z,4.50
2022-11-04T23:25:49.262Z,4.80
2022-11-04T23:28:34.370Z,4.60
2022-11-04T23:31:00.933Z,3.88
2022-11-04T23:34:02.550Z,4.20
2022-11-04T23:36:47.400Z,4.40
2022-11-04T23:39:13.974Z,3.83
2022-11-04T23:41:59.083Z,4.78
2022-11-04T23:44:43.889Z,4.70
2022-11-04T23:47:28.965Z,4.35
2022-11-04T23:50:14.144Z,4.13
2022-11-04T23:52:59.154Z,4.25
2022-11-04T23:55:44.044Z,4.07
2022-11-04T23:58:29.238Z,3.97
